sensor_id;sensor_type;location;lat;lon;timestamp;P1;durP1;ratioP1;P2;durP2;ratioP2
3343;SDS011;1685;53.104;8.228;2022-11-12T00:00:55;19.10;;;14.23;;
3343;SDS011;1685;53.104;8.228;2022-11-12T00:03:23;24.47;;;14.70;;
3343;SDS011;1685;53.104;8.228;2022-11-12T00:05:50;19.23;;;11.57;;
3343;SDS011;1685;53.104;8.228;2022-11-12T00:08:17;15.43;;;10.97;;
3343;SDS011;1685;53.104;8.228;2022-11-12T00:10:44;14.73;;;10.63;;
3343;SDS011;1685;53.104;8.228;2022-11-12T00:13:13;14.30;;;11.33;;
3343;SDS011;1685;53.104;8.228;2022-11-12T00:15:40;16.13;;;11.80;;
3343;SDS011;1685;53.104;8.228;2022-11-12T00:18:07;15.50;;;10.63;;
3343;SDS011;1685;53.104;8.228;2022-11-12T00:20:34;16.70;;;12.07;;
3343;SDS011;1685;53.104;8.228;2022-11-12T00:23:01;14.53;;;10.77;;
3343;SDS011;1685;53.104;8.228;2022-11-12T00:25:28;14.50;;;10.97;;
3343;SDS011;1685;53.104;8.228;2022-11-12T00:27:59;14.67;;;11.20;;
3343;SDS011;1685;53.104;8.228;2022-11-12T00:30:28;11.13;;;9.90;;
3343;SDS011;1685;53.104;8.228;2022-11-12T00:32:55;14.43;;;9.73;;
3343;SDS011;1685;53.104;8.228;2022-11-12T00:35:22;14.53;;;10.60;;
3343;SDS011;1685;53.104;8.228;2022-11-12T00:37:52;16.80;;;10.83;;
3343;SDS011;1685;53.104;8.228;2022-11-12T00:40:20;15.27;;;10.20;;
3343;SDS011;1685;53.104;8.228;2022-11-12T00:42:49;14.23;;;10.20;;
3343;SDS011;1685;53.104;8.228;2022-11-12T00:45:16;15.60;;;10.10;;
3343;SDS011;1685;53.104;8.228;2022-11-12T00:47:44;13.23;;;10.50;;
3343;SDS011;1685;53.104;8.228;2022-11-12T00:50:11;10.57;;;9.30;;
3343;SDS011;1685;53.104;8.228;2022-11-12T00:52:39;20.83;;;9.90;;
3343;SDS011;1685;53.104;8.228;2022-11-12T00:55:07;11.97;;;10.70;;
3343;SDS011;1685;53.104;8.228;2022-11-12T00:57:33;12.27;;;9.90;;
3343;SDS011;1685;53.104;8.228;2022-11-12T01:00:01;17.63;;;9.57;;
3343;SDS011;1685;53.104;8.228;2022-11-12T01:02:28;13.57;;;10.30;;
3343;SDS011;1685;53.104;8.228;2022-11-12T01:04:56;14.50;;;9.30;;
3343;SDS011;1685;53.104;8.228;2022-11-12T01:07:23;14.50;;;10.63;;
3343;SDS011;1685;53.104;8.228;2022-11-12T01:09:50;19.57;;;9.20;;
3343;SDS011;1685;53.104;8.228;2022-11-12T01:12:17;12.27;;;9.57;;
3343;SDS011;1685;53.104;8.228;2022-11-12T01:14:44;11.40;;;9.47;;
3343;SDS011;1685;53.104;8.228;2022-11-12T01:17:11;14.90;;;9.73;;
3343;SDS011;1685;53.104;8.228;2022-11-12T01:19:38;14.17;;;9.37;;
3343;SDS011;1685;53.104;8.228;2022-11-12T01:22:06;15.03;;;9.90;;
3343;SDS011;1685;53.104;8.228;2022-11-12T01:24:33;19.13;;;10.60;;
3343;SDS011;1685;53.104;8.228;2022-11-12T01:27:00;14.50;;;10.20;;
3343;SDS011;1685;53.104;8.228;2022-11-12T01:29:27;12.20;;;9.67;;
3343;SDS011;1685;53.104;8.228;2022-11-12T01:31:54;13.60;;;9.80;;
3343;SDS011;1685;53.104;8.228;2022-11-12T01:34:21;13.83;;;9.10;;
3343;SDS011;1685;53.104;8.228;2022-11-12T01:36:48;11.23;;;8.63;;
3343;SDS011;1685;53.104;8.228;2022-11-12T01:39:17;24.47;;;9.90;;
3343;SDS011;1685;53.104;8.228;2022-11-12T01:41:43;16.53;;;9.20;;
3343;SDS011;1685;53.104;8.228;2022-11-12T01:44:15;14.10;;;9.33;;
3343;SDS011;1685;53.104;8.228;2022-11-12T01:46:46;14.53;;;9.50;;
3343;SDS011;1685;53.104;8.228;2022-11-12T01:49:23;12.20;;;9.47;;
3343;SDS011;1685;53.104;8.228;2022-11-12T01:51:53;11.83;;;8.93;;
3343;SDS011;1685;53.104;8.228;2022-11-12T01:54:24;13.33;;;9.53;;
3343;SDS011;1685;53.104;8.228;2022-11-12T01:56:52;15.07;;;9.73;;
3343;SDS011;1685;53.104;8.228;2022-11-12T01:59:23;11.03;;;8.60;;
3343;SDS011;1685;53.104;8.228;2022-11-12T02:01:53;18.03;;;8.77;;
3343;SDS011;1685;53.104;8.228;2022-11-12T02:04:20;13.70;;;9.50;;
3343;SDS011;1685;53.104;8.228;2022-11-12T02:06:48;14.07;;;9.03;;
3343;SDS011;1685;53.104;8.228;2022-11-12T02:09:16;17.23;;;9.97;;
3343;SDS011;1685;53.104;8.228;2022-11-12T02:11:45;16.23;;;9.00;;
3343;SDS011;1685;53.104;8.228;2022-11-12T02:14:12;13.30;;;8.33;;
3343;SDS011;1685;53.104;8.228;2022-11-12T02:16:38;15.50;;;9.03;;
3343;SDS011;1685;53.104;8.228;2022-11-12T02:19:08;11.40;;;8.83;;
3343;SDS011;1685;53.104;8.228;2022-11-12T02:21:38;10.00;;;8.13;;
3343;SDS011;1685;53.104;8.228;2022-11-12T02:24:26;10.50;;;9.07;;
3343;SDS011;1685;53.104;8.228;2022-11-12T02:26:56;10.60;;;8.20;;
3343;SDS011;1685;53.104;8.228;2022-11-12T02:29:24;11.40;;;8.30;;
3343;SDS011;1685;53.104;8.228;2022-11-12T02:31:51;11.47;;;10.10;;
3343;SDS011;1685;53.104;8.228;2022-11-12T02:34:18;11.70;;;8.90;;
3343;SDS011;1685;53.104;8.228;2022-11-12T02:36:46;11.27;;;9.07;;
3343;SDS011;1685;53.104;8.228;2022-11-12T02:39:13;12.50;;;9.20;;
3343;SDS011;1685;53.104;8.228;2022-11-12T02:41:40;14.73;;;8.50;;
3343;SDS011;1685;53.104;8.228;2022-11-12T02:44:07;15.00;;;9.53;;
3343;SDS011;1685;53.104;8.228;2022-11-12T02:46:34;13.13;;;9.20;;
3343;SDS011;1685;53.104;8.228;2022-11-12T02:49:01;13.20;;;8.97;;
3343;SDS011;1685;53.104;8.228;2022-11-12T02:51:28;12.03;;;8.90;;
3343;SDS011;1685;53.104;8.228;2022-11-12T02:53:56;9.77;;;8.57;;
3343;SDS011;1685;53.104;8.228;2022-11-12T02:56:23;14.30;;;9.17;;
3343;SDS011;1685;53.104;8.228;2022-11-12T02:58:50;17.40;;;9.80;;
3343;SDS011;1685;53.104;8.228;2022-11-12T03:01:17;19.00;;;8.80;;
3343;SDS011;1685;53.104;8.228;2022-11-12T03:03:44;11.80;;;8.90;;
3343;SDS011;1685;53.104;8.228;2022-11-12T03:06:11;10.77;;;8.80;;
3343;SDS011;1685;53.104;8.228;2022-11-12T03:08:38;10.33;;;9.03;;
3343;SDS011;1685;53.104;8.228;2022-11-12T03:11:07;13.30;;;8.13;;
3343;SDS011;1685;53.104;8.228;2022-11-12T03:13:35;12.60;;;8.60;;
3343;SDS011;1685;53.104;8.228;2022-11-12T03:16:02;12.00;;;9.17;;
3343;SDS011;1685;53.104;8.228;2022-11-12T03:18:29;17.53;;;9.97;;
3343;SDS011;1685;53.104;8.228;2022-11-12T03:20:56;13.83;;;9.70;;
3343;SDS011;1685;53.104;8.228;2022-11-12T03:23:24;10.77;;;8.47;;
3343;SDS011;1685;53.104;8.228;2022-11-12T03:25:51;10.77;;;8.77;;
3343;SDS011;1685;53.104;8.228;2022-11-12T03:28:20;13.80;;;9.70;;
3343;SDS011;1685;53.104;8.228;2022-11-12T03:30:47;10.50;;;8.63;;
3343;SDS011;1685;53.104;8.228;2022-11-12T03:33:14;15.73;;;9.30;;
3343;SDS011;1685;53.104;8.228;2022-11-12T03:35:41;13.73;;;8.20;;
3343;SDS011;1685;53.104;8.228;2022-11-12T03:38:08;13.00;;;9.20;;
3343;SDS011;1685;53.104;8.228;2022-11-12T03:40:36;12.23;;;9.20;;
3343;SDS011;1685;53.104;8.228;2022-11-12T03:43:03;13.83;;;8.70;;
3343;SDS011;1685;53.104;8.228;2022-11-12T03:45:31;19.80;;;8.90;;
3343;SDS011;1685;53.104;8.228;2022-11-12T03:47:58;15.13;;;9.67;;
3343;SDS011;1685;53.104;8.228;2022-11-12T03:50:26;16.17;;;10.50;;
3343;SDS011;1685;53.104;8.228;2022-11-12T03:52:55;16.40;;;9.33;;
3343;SDS011;1685;53.104;8.228;2022-11-12T03:55:23;12.63;;;10.03;;
3343;SDS011;1685;53.104;8.228;2022-11-12T03:57:51;13.20;;;9.67;;
3343;SDS011;1685;53.104;8.228;2022-11-12T04:00:19;11.30;;;9.20;;
3343;SDS011;1685;53.104;8.228;2022-11-12T04:02:48;17.30;;;11.10;;
3343;SDS011;1685;53.104;8.228;2022-11-12T04:05:15;17.00;;;9.73;;
3343;SDS011;1685;53.104;8.228;2022-11-12T04:08:01;16.40;;;10.77;;
3343;SDS011;1685;53.104;8.228;2022-11-12T04:10:47;13.57;;;8.77;;
3343;SDS011;1685;53.104;8.228;2022-11-12T04:13:14;14.40;;;8.90;;
3343;SDS011;1685;53.104;8.228;2022-11-12T04:15:54;12.07;;;9.17;;
3343;SDS011;1685;53.104;8.228;2022-11-12T04:18:40;13.27;;;9.30;;
3343;SDS011;1685;53.104;8.228;2022-11-12T04:21:26;14.77;;;10.17;;
3343;SDS011;1685;53.104;8.228;2022-11-12T04:24:13;11.70;;;9.30;;
3343;SDS011;1685;53.104;8.228;2022-11-12T04:26:54;12.10;;;9.27;;
3343;SDS011;1685;53.104;8.228;2022-11-12T04:29:21;11.50;;;8.63;;
3343;SDS011;1685;53.104;8.228;2022-11-12T04:32:08;13.10;;;8.30;;
3343;SDS011;1685;53.104;8.228;2022-11-12T04:34:36;14.00;;;9.73;;
3343;SDS011;1685;53.104;8.228;2022-11-12T04:37:04;11.53;;;9.43;;
3343;SDS011;1685;53.104;8.228;2022-11-12T04:39:31;14.37;;;8.87;;
3343;SDS011;1685;53.104;8.228;2022-11-12T04:41:59;12.73;;;9.30;;
3343;SDS011;1685;53.104;8.228;2022-11-12T04:44:43;14.40;;;8.50;;
3343;SDS011;1685;53.104;8.228;2022-11-12T04:47:25;16.00;;;9.13;;
3343;SDS011;1685;53.104;8.228;2022-11-12T04:49:54;13.83;;;8.73;;
3343;SDS011;1685;53.104;8.228;2022-11-12T04:52:21;12.40;;;8.27;;
3343;SDS011;1685;53.104;8.228;2022-11-12T04:54:48;9.70;;;8.70;;
3343;SDS011;1685;53.104;8.228;2022-11-12T04:57:15;24.83;;;7.10;;
3343;SDS011;1685;53.104;8.228;2022-11-12T04:59:42;15.50;;;7.80;;
3343;SDS011;1685;53.104;8.228;2022-11-12T05:02:09;10.53;;;8.80;;
3343;SDS011;1685;53.104;8.228;2022-11-12T05:04:36;11.87;;;8.40;;
3343;SDS011;1685;53.104;8.228;2022-11-12T05:07:05;13.50;;;8.57;;
3343;SDS011;1685;53.104;8.228;2022-11-12T05:09:31;12.97;;;8.47;;
3343;SDS011;1685;53.104;8.228;2022-11-12T05:11:58;11.63;;;9.13;;
3343;SDS011;1685;53.104;8.228;2022-11-12T05:14:25;11.30;;;8.80;;
3343;SDS011;1685;53.104;8.228;2022-11-12T05:16:52;13.10;;;8.10;;
3343;SDS011;1685;53.104;8.228;2022-11-12T05:19:19;11.47;;;8.10;;
3343;SDS011;1685;53.104;8.228;2022-11-12T05:21:46;10.43;;;9.23;;
3343;SDS011;1685;53.104;8.228;2022-11-12T05:24:34;16.33;;;8.17;;
3343;SDS011;1685;53.104;8.228;2022-11-12T05:27:03;14.10;;;8.20;;
3343;SDS011;1685;53.104;8.228;2022-11-12T05:29:31;11.57;;;9.10;;
3343;SDS011;1685;53.104;8.228;2022-11-12T05:31:58;16.33;;;8.30;;
3343;SDS011;1685;53.104;8.228;2022-11-12T05:34:25;16.80;;;8.93;;
3343;SDS011;1685;53.104;8.228;2022-11-12T05:36:52;11.70;;;9.17;;
3343;SDS011;1685;53.104;8.228;2022-11-12T05:39:19;13.80;;;9.40;;
3343;SDS011;1685;53.104;8.228;2022-11-12T05:41:48;13.10;;;8.93;;
3343;SDS011;1685;53.104;8.228;2022-11-12T05:44:15;9.83;;;8.03;;
3343;SDS011;1685;53.104;8.228;2022-11-12T05:46:42;10.37;;;9.00;;
3343;SDS011;1685;53.104;8.228;2022-11-12T05:49:09;15.50;;;9.33;;
3343;SDS011;1685;53.104;8.228;2022-11-12T05:51:36;12.57;;;9.00;;
3343;SDS011;1685;53.104;8.228;2022-11-12T05:54:03;14.47;;;9.47;;
3343;SDS011;1685;53.104;8.228;2022-11-12T05:56:31;19.63;;;9.80;;
3343;SDS011;1685;53.104;8.228;2022-11-12T05:58:59;12.37;;;9.60;;
3343;SDS011;1685;53.104;8.228;2022-11-12T06:01:27;11.20;;;9.13;;
3343;SDS011;1685;53.104;8.228;2022-11-12T06:03:54;12.27;;;8.97;;
3343;SDS011;1685;53.104;8.228;2022-11-12T06:06:21;10.93;;;8.23;;
3343;SDS011;1685;53.104;8.228;2022-11-12T06:08:48;11.53;;;9.13;;
3343;SDS011;1685;53.104;8.228;2022-11-12T06:11:15;12.20;;;9.73;;
3343;SDS011;1685;53.104;8.228;2022-11-12T06:13:42;10.33;;;8.67;;
3343;SDS011;1685;53.104;8.228;2022-11-12T06:16:10;13.00;;;9.67;;
3343;SDS011;1685;53.104;8.228;2022-11-12T06:18:37;13.60;;;9.70;;
3343;SDS011;1685;53.104;8.228;2022-11-12T06:21:05;12.00;;;9.27;;
3343;SDS011;1685;53.104;8.228;2022-11-12T06:23:46;11.77;;;9.30;;
3343;SDS011;1685;53.104;8.228;2022-11-12T06:26:13;13.53;;;9.20;;
3343;SDS011;1685;53.104;8.228;2022-11-12T06:28:40;19.00;;;8.87;;
3343;SDS011;1685;53.104;8.228;2022-11-12T06:31:07;14.87;;;9.50;;
3343;SDS011;1685;53.104;8.228;2022-11-12T06:33:35;11.03;;;8.80;;
3343;SDS011;1685;53.104;8.228;2022-11-12T06:36:03;11.53;;;9.00;;
3343;SDS011;1685;53.104;8.228;2022-11-12T06:38:31;11.40;;;9.47;;
3343;SDS011;1685;53.104;8.228;2022-11-12T06:41:02;15.73;;;10.67;;
3343;SDS011;1685;53.104;8.228;2022-11-12T06:43:30;13.80;;;11.80;;
3343;SDS011;1685;53.104;8.228;2022-11-12T06:45:58;16.30;;;12.10;;
3343;SDS011;1685;53.104;8.228;2022-11-12T06:48:26;16.50;;;13.23;;
3343;SDS011;1685;53.104;8.228;2022-11-12T06:50:54;18.33;;;13.80;;
3343;SDS011;1685;53.104;8.228;2022-11-12T06:53:21;14.03;;;10.17;;
3343;SDS011;1685;53.104;8.228;2022-11-12T06:55:48;10.40;;;9.30;;
3343;SDS011;1685;53.104;8.228;2022-11-12T06:58:15;14.57;;;9.67;;
3343;SDS011;1685;53.104;8.228;2022-11-12T07:00:42;10.97;;;8.43;;
3343;SDS011;1685;53.104;8.228;2022-11-12T07:03:11;14.83;;;9.90;;
3343;SDS011;1685;53.104;8.228;2022-11-12T07:05:40;12.80;;;8.67;;
3343;SDS011;1685;53.104;8.228;2022-11-12T07:08:08;10.33;;;8.70;;
3343;SDS011;1685;53.104;8.228;2022-11-12T07:10:35;13.33;;;10.10;;
3343;SDS011;1685;53.104;8.228;2022-11-12T07:13:02;11.90;;;9.10;;
3343;SDS011;1685;53.104;8.228;2022-11-12T07:15:29;14.23;;;10.23;;
3343;SDS011;1685;53.104;8.228;2022-11-12T07:17:56;13.40;;;10.20;;
3343;SDS011;1685;53.104;8.228;2022-11-12T07:20:23;14.13;;;10.10;;
3343;SDS011;1685;53.104;8.228;2022-11-12T07:22:50;15.10;;;10.27;;
3343;SDS011;1685;53.104;8.228;2022-11-12T07:25:19;20.80;;;11.23;;
3343;SDS011;1685;53.104;8.228;2022-11-12T07:27:45;13.33;;;10.00;;
3343;SDS011;1685;53.104;8.228;2022-11-12T07:30:14;12.10;;;8.90;;
3343;SDS011;1685;53.104;8.228;2022-11-12T07:32:41;10.43;;;9.33;;
3343;SDS011;1685;53.104;8.228;2022-11-12T07:35:08;11.67;;;10.40;;
3343;SDS011;1685;53.104;8.228;2022-11-12T07:37:34;16.80;;;9.80;;
3343;SDS011;1685;53.104;8.228;2022-11-12T07:40:02;13.90;;;9.90;;
3343;SDS011;1685;53.104;8.228;2022-11-12T07:42:32;13.00;;;9.50;;
3343;SDS011;1685;53.104;8.228;2022-11-12T07:45:00;12.83;;;10.63;;
3343;SDS011;1685;53.104;8.228;2022-11-12T07:47:27;11.10;;;9.30;;
3343;SDS011;1685;53.104;8.228;2022-11-12T07:49:54;15.20;;;9.77;;
3343;SDS011;1685;53.104;8.228;2022-11-12T07:52:21;11.73;;;9.47;;
3343;SDS011;1685;53.104;8.228;2022-11-12T07:54:48;12.37;;;9.03;;
3343;SDS011;1685;53.104;8.228;2022-11-12T07:57:15;12.93;;;10.23;;
3343;SDS011;1685;53.104;8.228;2022-11-12T07:59:43;12.30;;;9.67;;
3343;SDS011;1685;53.104;8.228;2022-11-12T08:02:10;16.93;;;12.20;;
3343;SDS011;1685;53.104;8.228;2022-11-12T08:04:37;15.57;;;10.57;;
3343;SDS011;1685;53.104;8.228;2022-11-12T08:07:04;16.03;;;10.27;;
3343;SDS011;1685;53.104;8.228;2022-11-12T08:09:31;18.47;;;10.70;;
3343;SDS011;1685;53.104;8.228;2022-11-12T08:11:58;13.17;;;11.40;;
3343;SDS011;1685;53.104;8.228;2022-11-12T08:14:25;17.30;;;11.10;;
3343;SDS011;1685;53.104;8.228;2022-11-12T08:16:54;18.60;;;11.90;;
3343;SDS011;1685;53.104;8.228;2022-11-12T08:19:20;20.43;;;11.27;;
3343;SDS011;1685;53.104;8.228;2022-11-12T08:21:47;19.00;;;11.33;;
3343;SDS011;1685;53.104;8.228;2022-11-12T08:24:14;17.07;;;13.13;;
3343;SDS011;1685;53.104;8.228;2022-11-12T08:26:41;21.53;;;14.00;;
3343;SDS011;1685;53.104;8.228;2022-11-12T08:29:08;26.43;;;16.20;;
3343;SDS011;1685;53.104;8.228;2022-11-12T08:31:35;23.13;;;14.07;;
3343;SDS011;1685;53.104;8.228;2022-11-12T08:34:04;22.20;;;13.13;;
3343;SDS011;1685;53.104;8.228;2022-11-12T08:36:37;18.87;;;13.23;;
3343;SDS011;1685;53.104;8.228;2022-11-12T08:39:05;25.13;;;14.97;;
3343;SDS011;1685;53.104;8.228;2022-11-12T08:41:32;22.40;;;15.17;;
3343;SDS011;1685;53.104;8.228;2022-11-12T08:43:59;21.40;;;15.23;;
3343;SDS011;1685;53.104;8.228;2022-11-12T08:46:26;24.40;;;15.60;;
3343;SDS011;1685;53.104;8.228;2022-11-12T08:48:53;23.33;;;15.90;;
3343;SDS011;1685;53.104;8.228;2022-11-12T08:51:21;27.90;;;18.73;;
3343;SDS011;1685;53.104;8.228;2022-11-12T08:53:48;23.80;;;18.93;;
3343;SDS011;1685;53.104;8.228;2022-11-12T08:56:15;37.17;;;18.40;;
3343;SDS011;1685;53.104;8.228;2022-11-12T08:58:42;28.73;;;18.63;;
3343;SDS011;1685;53.104;8.228;2022-11-12T09:01:09;31.57;;;20.17;;
3343;SDS011;1685;53.104;8.228;2022-11-12T09:03:36;25.10;;;18.70;;
3343;SDS011;1685;53.104;8.228;2022-11-12T09:06:04;27.83;;;19.23;;
3343;SDS011;1685;53.104;8.228;2022-11-12T09:08:33;25.53;;;19.00;;
3343;SDS011;1685;53.104;8.228;2022-11-12T09:11:02;27.33;;;19.77;;
3343;SDS011;1685;53.104;8.228;2022-11-12T09:13:29;25.43;;;18.57;;
3343;SDS011;1685;53.104;8.228;2022-11-12T09:15:59;23.73;;;19.90;;
3343;SDS011;1685;53.104;8.228;2022-11-12T09:18:27;23.40;;;18.90;;
3343;SDS011;1685;53.104;8.228;2022-11-12T09:20:58;25.50;;;19.40;;
3343;SDS011;1685;53.104;8.228;2022-11-12T09:23:25;24.97;;;19.20;;
3343;SDS011;1685;53.104;8.228;2022-11-12T09:25:55;27.10;;;20.70;;
3343;SDS011;1685;53.104;8.228;2022-11-12T09:28:22;30.67;;;22.00;;
3343;SDS011;1685;53.104;8.228;2022-11-12T09:30:50;27.20;;;20.93;;
3343;SDS011;1685;53.104;8.228;2022-11-12T09:33:18;24.20;;;18.73;;
3343;SDS011;1685;53.104;8.228;2022-11-12T09:35:47;24.40;;;19.33;;
3343;SDS011;1685;53.104;8.228;2022-11-12T09:38:14;24.10;;;19.87;;
3343;SDS011;1685;53.104;8.228;2022-11-12T09:40:47;24.23;;;20.67;;
3343;SDS011;1685;53.104;8.228;2022-11-12T09:43:36;27.27;;;20.27;;
3343;SDS011;1685;53.104;8.228;2022-11-12T09:46:05;27.60;;;19.40;;
3343;SDS011;1685;53.104;8.228;2022-11-12T09:48:43;25.53;;;19.53;;
3343;SDS011;1685;53.104;8.228;2022-11-12T09:51:15;26.73;;;20.00;;
3343;SDS011;1685;53.104;8.228;2022-11-12T09:53:51;22.30;;;18.60;;
3343;SDS011;1685;53.104;8.228;2022-11-12T09:56:22;24.40;;;18.87;;
3343;SDS011;1685;53.104;8.228;2022-11-12T09:58:50;27.43;;;19.23;;
3343;SDS011;1685;53.104;8.228;2022-11-12T10:01:18;27.87;;;18.00;;
3343;SDS011;1685;53.104;8.228;2022-11-12T10:03:52;23.63;;;18.50;;
3343;SDS011;1685;53.104;8.228;2022-11-12T10:06:26;26.33;;;17.90;;
3343;SDS011;1685;53.104;8.228;2022-11-12T10:09:00;25.00;;;16.83;;
3343;SDS011;1685;53.104;8.228;2022-11-12T10:14:46;20.07;;;15.30;;
3343;SDS011;1685;53.104;8.228;2022-11-12T10:17:45;16.63;;;14.67;;
3343;SDS011;1685;53.104;8.228;2022-11-12T10:20:16;19.40;;;13.47;;
3343;SDS011;1685;53.104;8.228;2022-11-12T10:22:57;24.63;;;14.10;;
3343;SDS011;1685;53.104;8.228;2022-11-12T10:25:32;19.47;;;13.53;;
3343;SDS011;1685;53.104;8.228;2022-11-12T10:28:03;19.27;;;13.83;;
3343;SDS011;1685;53.104;8.228;2022-11-12T10:30:39;18.13;;;13.73;;
3343;SDS011;1685;53.104;8.228;2022-11-12T10:33:09;19.30;;;13.07;;
3343;SDS011;1685;53.104;8.228;2022-11-12T10:35:38;16.90;;;13.70;;
3343;SDS011;1685;53.104;8.228;2022-11-12T10:38:08;19.93;;;14.00;;
3343;SDS011;1685;53.104;8.228;2022-11-12T10:40:39;19.20;;;12.80;;
3343;SDS011;1685;53.104;8.228;2022-11-12T10:43:19;15.77;;;13.30;;
3343;SDS011;1685;53.104;8.228;2022-11-12T10:45:47;26.30;;;14.87;;
3343;SDS011;1685;53.104;8.228;2022-11-12T10:48:22;18.03;;;13.57;;
3343;SDS011;1685;53.104;8.228;2022-11-12T10:50:52;24.87;;;13.80;;
3343;SDS011;1685;53.104;8.228;2022-11-12T10:53:31;14.33;;;12.13;;
3343;SDS011;1685;53.104;8.228;2022-11-12T10:55:59;14.63;;;11.10;;
3343;SDS011;1685;53.104;8.228;2022-11-12T10:58:29;19.60;;;12.67;;
3343;SDS011;1685;53.104;8.228;2022-11-12T11:01:00;13.97;;;11.70;;
3343;SDS011;1685;53.104;8.228;2022-11-12T11:03:28;23.40;;;13.40;;
3343;SDS011;1685;53.104;8.228;2022-11-12T11:05:59;20.10;;;12.83;;
3343;SDS011;1685;53.104;8.228;2022-11-12T11:08:30;15.87;;;11.80;;
3343;SDS011;1685;53.104;8.228;2022-11-12T11:11:09;15.50;;;12.20;;
3343;SDS011;1685;53.104;8.228;2022-11-12T11:13:43;15.60;;;12.20;;
3343;SDS011;1685;53.104;8.228;2022-11-12T11:16:12;20.77;;;13.00;;
3343;SDS011;1685;53.104;8.228;2022-11-12T11:18:40;20.70;;;13.13;;
3343;SDS011;1685;53.104;8.228;2022-11-12T11:21:15;19.43;;;12.03;;
3343;SDS011;1685;53.104;8.228;2022-11-12T11:23:55;16.20;;;11.30;;
3343;SDS011;1685;53.104;8.228;2022-11-12T11:26:28;13.47;;;11.17;;
3343;SDS011;1685;53.104;8.228;2022-11-12T11:29:17;17.10;;;12.33;;
3343;SDS011;1685;53.104;8.228;2022-11-12T11:31:54;16.93;;;11.90;;
3343;SDS011;1685;53.104;8.228;2022-11-12T11:34:31;14.20;;;11.70;;
3343;SDS011;1685;53.104;8.228;2022-11-12T11:37:05;15.17;;;11.47;;
3343;SDS011;1685;53.104;8.228;2022-11-12T11:39:46;16.50;;;11.87;;
3343;SDS011;1685;53.104;8.228;2022-11-12T11:42:31;15.90;;;11.73;;
3343;SDS011;1685;53.104;8.228;2022-11-12T11:45:15;14.20;;;11.10;;
3343;SDS011;1685;53.104;8.228;2022-11-12T11:47:48;14.03;;;10.73;;
3343;SDS011;1685;53.104;8.228;2022-11-12T11:50:21;15.60;;;10.97;;
3343;SDS011;1685;53.104;8.228;2022-11-12T11:52:54;14.43;;;11.70;;
3343;SDS011;1685;53.104;8.228;2022-11-12T11:55:34;17.33;;;11.83;;
3343;SDS011;1685;53.104;8.228;2022-11-12T11:58:11;17.90;;;11.67;;
3343;SDS011;1685;53.104;8.228;2022-11-12T12:01:06;15.43;;;11.40;;
3343;SDS011;1685;53.104;8.228;2022-11-12T12:03:42;20.83;;;12.50;;
3343;SDS011;1685;53.104;8.228;2022-11-12T12:06:18;20.63;;;12.23;;
3343;SDS011;1685;53.104;8.228;2022-11-12T12:09:00;15.97;;;12.20;;
3343;SDS011;1685;53.104;8.228;2022-11-12T12:11:37;17.70;;;11.57;;
3343;SDS011;1685;53.104;8.228;2022-11-12T12:14:17;16.30;;;12.30;;
3343;SDS011;1685;53.104;8.228;2022-11-12T12:16:58;17.60;;;11.60;;
3343;SDS011;1685;53.104;8.228;2022-11-12T12:19:33;17.97;;;11.77;;
3343;SDS011;1685;53.104;8.228;2022-11-12T12:22:12;14.60;;;11.47;;
3343;SDS011;1685;53.104;8.228;2022-11-12T12:24:45;16.83;;;11.73;;
3343;SDS011;1685;53.104;8.228;2022-11-12T12:27:17;14.20;;;12.13;;
3343;SDS011;1685;53.104;8.228;2022-11-12T12:29:48;14.17;;;11.37;;
3343;SDS011;1685;53.104;8.228;2022-11-12T12:32:19;13.77;;;10.73;;
3343;SDS011;1685;53.104;8.228;2022-11-12T12:34:54;13.00;;;10.97;;
3343;SDS011;1685;53.104;8.228;2022-11-12T12:37:26;15.47;;;10.60;;
3343;SDS011;1685;53.104;8.228;2022-11-12T12:40:02;17.90;;;12.40;;
3343;SDS011;1685;53.104;8.228;2022-11-12T12:42:38;15.30;;;11.03;;
3343;SDS011;1685;53.104;8.228;2022-11-12T12:45:25;18.43;;;10.47;;
3343;SDS011;1685;53.104;8.228;2022-11-12T12:48:00;14.00;;;10.57;;
3343;SDS011;1685;53.104;8.228;2022-11-12T12:50:31;16.43;;;11.33;;
3343;SDS011;1685;53.104;8.228;2022-11-12T12:52:59;13.83;;;10.40;;
3343;SDS011;1685;53.104;8.228;2022-11-12T12:55:34;13.00;;;10.30;;
3343;SDS011;1685;53.104;8.228;2022-11-12T12:58:03;11.47;;;9.30;;
3343;SDS011;1685;53.104;8.228;2022-11-12T13:00:31;14.03;;;9.70;;
3343;SDS011;1685;53.104;8.228;2022-11-12T13:03:03;13.60;;;11.00;;
3343;SDS011;1685;53.104;8.228;2022-11-12T13:05:30;14.30;;;10.43;;
3343;SDS011;1685;53.104;8.228;2022-11-12T13:08:00;13.70;;;10.50;;
3343;SDS011;1685;53.104;8.228;2022-11-12T13:13:28;13.77;;;9.60;;
3343;SDS011;1685;53.104;8.228;2022-11-12T13:15:57;14.33;;;10.60;;
3343;SDS011;1685;53.104;8.228;2022-11-12T13:21:29;20.30;;;9.30;;
3343;SDS011;1685;53.104;8.228;2022-11-12T13:24:00;13.77;;;9.07;;
3343;SDS011;1685;53.104;8.228;2022-11-12T13:26:41;10.80;;;9.13;;
3343;SDS011;1685;53.104;8.228;2022-11-12T13:29:16;14.00;;;8.93;;
3343;SDS011;1685;53.104;8.228;2022-11-12T13:31:46;10.57;;;9.27;;
3343;SDS011;1685;53.104;8.228;2022-11-12T13:34:29;16.33;;;8.30;;
3343;SDS011;1685;53.104;8.228;2022-11-12T13:36:59;13.33;;;9.67;;
3343;SDS011;1685;53.104;8.228;2022-11-12T13:39:28;11.80;;;8.67;;
3343;SDS011;1685;53.104;8.228;2022-11-12T13:42:00;9.13;;;8.20;;
3343;SDS011;1685;53.104;8.228;2022-11-12T13:44:48;9.97;;;8.00;;
3343;SDS011;1685;53.104;8.228;2022-11-12T13:47:16;13.20;;;9.30;;
3343;SDS011;1685;53.104;8.228;2022-11-12T13:49:46;9.57;;;8.53;;
3343;SDS011;1685;53.104;8.228;2022-11-12T13:52:14;12.07;;;9.63;;
3343;SDS011;1685;53.104;8.228;2022-11-12T13:54:41;11.00;;;8.67;;
3343;SDS011;1685;53.104;8.228;2022-11-12T13:57:12;12.37;;;9.13;;
3343;SDS011;1685;53.104;8.228;2022-11-12T14:02:49;18.63;;;8.90;;
3343;SDS011;1685;53.104;8.228;2022-11-12T14:05:21;12.33;;;9.30;;
3343;SDS011;1685;53.104;8.228;2022-11-12T14:07:52;11.10;;;8.47;;
3343;SDS011;1685;53.104;8.228;2022-11-12T14:10:31;11.73;;;8.00;;
3343;SDS011;1685;53.104;8.228;2022-11-12T14:13:15;10.80;;;8.93;;
3343;SDS011;1685;53.104;8.228;2022-11-12T14:15:59;10.30;;;8.87;;
3343;SDS011;1685;53.104;8.228;2022-11-12T14:18:36;10.20;;;8.60;;
3343;SDS011;1685;53.104;8.228;2022-11-12T14:21:14;10.87;;;9.10;;
3343;SDS011;1685;53.104;8.228;2022-11-12T14:23:42;11.57;;;9.43;;
3343;SDS011;1685;53.104;8.228;2022-11-12T14:26:11;18.90;;;9.67;;
3343;SDS011;1685;53.104;8.228;2022-11-12T14:28:39;12.10;;;7.90;;
3343;SDS011;1685;53.104;8.228;2022-11-12T14:31:11;11.13;;;8.37;;
3343;SDS011;1685;53.104;8.228;2022-11-12T14:33:39;12.77;;;8.13;;
3343;SDS011;1685;53.104;8.228;2022-11-12T14:36:09;11.63;;;9.90;;
3343;SDS011;1685;53.104;8.228;2022-11-12T14:38:41;11.90;;;8.50;;
3343;SDS011;1685;53.104;8.228;2022-11-12T14:41:10;11.30;;;8.53;;
3343;SDS011;1685;53.104;8.228;2022-11-12T14:43:44;12.17;;;8.70;;
3343;SDS011;1685;53.104;8.228;2022-11-12T14:46:18;12.00;;;9.40;;
3343;SDS011;1685;53.104;8.228;2022-11-12T14:48:49;14.30;;;8.63;;
3343;SDS011;1685;53.104;8.228;2022-11-12T14:51:18;10.17;;;8.20;;
3343;SDS011;1685;53.104;8.228;2022-11-12T14:53:50;15.67;;;10.20;;
3343;SDS011;1685;53.104;8.228;2022-11-12T14:56:21;11.63;;;9.03;;
3343;SDS011;1685;53.104;8.228;2022-11-12T14:58:52;13.50;;;9.07;;
3343;SDS011;1685;53.104;8.228;2022-11-12T15:01:22;11.10;;;8.80;;
3343;SDS011;1685;53.104;8.228;2022-11-12T15:03:51;12.93;;;9.57;;
3343;SDS011;1685;53.104;8.228;2022-11-12T15:06:21;13.50;;;10.20;;
3343;SDS011;1685;53.104;8.228;2022-11-12T15:08:56;16.83;;;11.07;;
3343;SDS011;1685;53.104;8.228;2022-11-12T15:11:25;14.93;;;11.60;;
3343;SDS011;1685;53.104;8.228;2022-11-12T15:13:55;12.13;;;9.20;;
3343;SDS011;1685;53.104;8.228;2022-11-12T15:16:28;10.57;;;8.97;;
3343;SDS011;1685;53.104;8.228;2022-11-12T15:21:45;14.83;;;11.17;;
3343;SDS011;1685;53.104;8.228;2022-11-12T15:24:16;14.67;;;9.30;;
3343;SDS011;1685;53.104;8.228;2022-11-12T15:26:51;12.97;;;10.33;;
3343;SDS011;1685;53.104;8.228;2022-11-12T15:29:23;13.10;;;10.33;;